Terminal Aerodrome Forecast
Issued by NWS

Home | Current Version | Previous Version | Text Only | Print | Product List | Glossary On
Versions: 1 2 3 4 5 6 7 8 9 10 11 12 13 14
000
FTUS44 KLZK 210500
TAFHOT
TAF
KHOT 210520Z 2106/2206 VRB03KT P6SM VCSH SCT040 BKN070
      TEMPO 2112/2116 6SM -SHRA BR BKN035 OVC050
     FM211600 18007KT P6SM -SHRA BKN050 OVC100
     FM211800 22009KT P6SM -TSRA BKN040CB OVC100
     FM220000 VRB04KT P6SM VCSH BKN040 OVC100=

USA.gov is the U.S. government's official web portal to all federal, state and local government web resources and services.